Rehoboth, New Mexico
Current Conditions -  °F | °C
As of 5:53 PM on Sunday 23 Nov 2014 (Local Time) from KGUP Reporting Station
Clear Clear  
Wind Chill: 25°   Ceiling: Unl
Heat Index: 34°   Visibility: 10mi
Dew Point:   Wind: 13mph
Humidity: 27%   Direction: 300°WNW
Pressure: 30.08"   Gusts: NA
Location:  35.53°N, 108.66°W
Report Text: KGUP 240053Z AUTO 30011KT 10SM CLR 01/M16 A3008 RMK AO2 SLP178 T00111161
Loading
Personal Weather Stations






























Interactive Weather Map New forecast layout! Learn more

10-Day Weather Forecast

Advertisements
Track Severe Weather on mobile